sensor_id;sensor_type;location;lat;lon;timestamp;temperature;humidity
30999;DHT22;20549;50.042;8.968;2023-08-12T00:00:19;23.10;71.00
30999;DHT22;20549;50.042;8.968;2023-08-12T00:02:45;23.10;71.10
30999;DHT22;20549;50.042;8.968;2023-08-12T00:05:12;23.10;71.10
30999;DHT22;20549;50.042;8.968;2023-08-12T00:07:39;23.10;71.20
30999;DHT22;20549;50.042;8.968;2023-08-12T00:10:05;23.10;71.30
30999;DHT22;20549;50.042;8.968;2023-08-12T00:12:31;23.10;71.40
30999;DHT22;20549;50.042;8.968;2023-08-12T00:14:58;23.10;71.50
30999;DHT22;20549;50.042;8.968;2023-08-12T00:17:25;23.10;71.60
30999;DHT22;20549;50.042;8.968;2023-08-12T00:19:51;23.10;71.70
30999;DHT22;20549;50.042;8.968;2023-08-12T00:22:18;23.10;71.70
30999;DHT22;20549;50.042;8.968;2023-08-12T00:24:44;23.10;71.90
30999;DHT22;20549;50.042;8.968;2023-08-12T00:27:11;23.10;72.00
30999;DHT22;20549;50.042;8.968;2023-08-12T00:29:38;23.10;72.20
30999;DHT22;20549;50.042;8.968;2023-08-12T00:32:04;23.00;73.00
30999;DHT22;20549;50.042;8.968;2023-08-12T00:34:31;23.00;72.30
30999;DHT22;20549;50.042;8.968;2023-08-12T00:36:57;23.00;72.50
30999;DHT22;20549;50.042;8.968;2023-08-12T00:39:24;23.00;72.50
30999;DHT22;20549;50.042;8.968;2023-08-12T00:41:50;22.90;72.60
30999;DHT22;20549;50.042;8.968;2023-08-12T00:44:17;22.90;72.80
30999;DHT22;20549;50.042;8.968;2023-08-12T00:46:44;22.90;73.00
30999;DHT22;20549;50.042;8.968;2023-08-12T00:49:10;22.90;73.10
30999;DHT22;20549;50.042;8.968;2023-08-12T00:51:38;22.80;73.20
30999;DHT22;20549;50.042;8.968;2023-08-12T00:54:04;22.80;73.40
30999;DHT22;20549;50.042;8.968;2023-08-12T00:56:30;22.80;73.60
30999;DHT22;20549;50.042;8.968;2023-08-12T00:58:57;22.70;73.80
30999;DHT22;20549;50.042;8.968;2023-08-12T01:01:23;22.70;74.00
30999;DHT22;20549;50.042;8.968;2023-08-12T01:03:50;22.70;74.20
30999;DHT22;20549;50.042;8.968;2023-08-12T01:06:16;22.60;74.50
30999;DHT22;20549;50.042;8.968;2023-08-12T01:08:43;22.60;74.90
30999;DHT22;20549;50.042;8.968;2023-08-12T01:11:14;22.60;75.10
30999;DHT22;20549;50.042;8.968;2023-08-12T01:13:46;22.60;75.40
30999;DHT22;20549;50.042;8.968;2023-08-12T01:16:12;22.50;75.60
30999;DHT22;20549;50.042;8.968;2023-08-12T01:18:38;22.50;75.80
30999;DHT22;20549;50.042;8.968;2023-08-12T01:21:05;22.50;76.10
30999;DHT22;20549;50.042;8.968;2023-08-12T01:23:31;22.50;76.30
30999;DHT22;20549;50.042;8.968;2023-08-12T01:25:58;22.50;76.60
30999;DHT22;20549;50.042;8.968;2023-08-12T01:28:25;22.60;76.60
30999;DHT22;20549;50.042;8.968;2023-08-12T01:30:58;22.60;76.80
30999;DHT22;20549;50.042;8.968;2023-08-12T01:33:39;22.60;76.90
30999;DHT22;20549;50.042;8.968;2023-08-12T01:36:09;22.60;77.10
30999;DHT22;20549;50.042;8.968;2023-08-12T01:38:32;22.60;77.10
30999;DHT22;20549;50.042;8.968;2023-08-12T01:40:58;22.60;77.20
30999;DHT22;20549;50.042;8.968;2023-08-12T01:43:25;22.60;77.50
30999;DHT22;20549;50.042;8.968;2023-08-12T01:45:51;22.60;77.70
30999;DHT22;20549;50.042;8.968;2023-08-12T01:48:18;22.60;77.80
30999;DHT22;20549;50.042;8.968;2023-08-12T01:50:45;22.60;78.10
30999;DHT22;20549;50.042;8.968;2023-08-12T01:53:11;22.60;78.00
30999;DHT22;20549;50.042;8.968;2023-08-12T01:55:38;22.70;78.20
30999;DHT22;20549;50.042;8.968;2023-08-12T01:58:04;22.70;78.20
30999;DHT22;20549;50.042;8.968;2023-08-12T02:00:31;22.70;78.50
30999;DHT22;20549;50.042;8.968;2023-08-12T02:02:58;22.80;78.60
30999;DHT22;20549;50.042;8.968;2023-08-12T02:05:24;22.70;78.50
30999;DHT22;20549;50.042;8.968;2023-08-12T02:07:51;22.80;78.90
30999;DHT22;20549;50.042;8.968;2023-08-12T02:10:17;22.80;78.90
30999;DHT22;20549;50.042;8.968;2023-08-12T02:12:44;22.80;78.90
30999;DHT22;20549;50.042;8.968;2023-08-12T02:15:10;22.80;78.90
30999;DHT22;20549;50.042;8.968;2023-08-12T02:17:37;22.80;78.80
30999;DHT22;20549;50.042;8.968;2023-08-12T02:20:04;22.80;78.90
30999;DHT22;20549;50.042;8.968;2023-08-12T02:22:30;22.80;78.80
30999;DHT22;20549;50.042;8.968;2023-08-12T02:24:57;22.90;78.90
30999;DHT22;20549;50.042;8.968;2023-08-12T02:27:23;22.90;78.90
30999;DHT22;20549;50.042;8.968;2023-08-12T02:29:50;22.90;79.10
30999;DHT22;20549;50.042;8.968;2023-08-12T02:32:17;22.90;79.20
30999;DHT22;20549;50.042;8.968;2023-08-12T02:34:43;22.90;79.30
30999;DHT22;20549;50.042;8.968;2023-08-12T02:37:10;22.90;79.50
30999;DHT22;20549;50.042;8.968;2023-08-12T02:39:36;22.90;79.10
30999;DHT22;20549;50.042;8.968;2023-08-12T02:42:03;22.90;80.00
30999;DHT22;20549;50.042;8.968;2023-08-12T02:44:30;22.90;80.30
30999;DHT22;20549;50.042;8.968;2023-08-12T02:46:56;22.90;80.70
30999;DHT22;20549;50.042;8.968;2023-08-12T02:49:23;22.90;81.60
30999;DHT22;20549;50.042;8.968;2023-08-12T02:51:49;23.00;81.90
30999;DHT22;20549;50.042;8.968;2023-08-12T02:54:16;23.00;82.10
30999;DHT22;20549;50.042;8.968;2023-08-12T02:56:43;23.00;82.30
30999;DHT22;20549;50.042;8.968;2023-08-12T02:59:09;23.00;82.70
30999;DHT22;20549;50.042;8.968;2023-08-12T03:01:36;23.00;83.20
30999;DHT22;20549;50.042;8.968;2023-08-12T03:04:02;23.00;83.60
30999;DHT22;20549;50.042;8.968;2023-08-12T03:06:29;23.00;83.90
30999;DHT22;20549;50.042;8.968;2023-08-12T03:08:55;23.00;84.50
30999;DHT22;20549;50.042;8.968;2023-08-12T03:11:22;23.00;85.30
30999;DHT22;20549;50.042;8.968;2023-08-12T03:13:49;23.00;86.10
30999;DHT22;20549;50.042;8.968;2023-08-12T03:16:15;23.00;86.30
30999;DHT22;20549;50.042;8.968;2023-08-12T03:18:42;23.00;86.60
30999;DHT22;20549;50.042;8.968;2023-08-12T03:21:09;22.90;86.70
30999;DHT22;20549;50.042;8.968;2023-08-12T03:23:35;22.90;87.10
30999;DHT22;20549;50.042;8.968;2023-08-12T03:26:02;22.90;86.90
30999;DHT22;20549;50.042;8.968;2023-08-12T03:28:29;22.90;87.50
30999;DHT22;20549;50.042;8.968;2023-08-12T03:30:55;22.90;87.80
30999;DHT22;20549;50.042;8.968;2023-08-12T03:33:21;22.80;88.90
30999;DHT22;20549;50.042;8.968;2023-08-12T03:35:48;22.80;89.60
30999;DHT22;20549;50.042;8.968;2023-08-12T03:38:15;22.80;90.00
30999;DHT22;20549;50.042;8.968;2023-08-12T03:40:41;22.80;90.10
30999;DHT22;20549;50.042;8.968;2023-08-12T03:43:08;22.70;90.40
30999;DHT22;20549;50.042;8.968;2023-08-12T03:45:43;22.70;90.70
30999;DHT22;20549;50.042;8.968;2023-08-12T03:48:10;22.70;91.00
30999;DHT22;20549;50.042;8.968;2023-08-12T03:50:37;22.60;91.30
30999;DHT22;20549;50.042;8.968;2023-08-12T03:53:03;22.60;91.70
30999;DHT22;20549;50.042;8.968;2023-08-12T03:55:33;22.60;92.00
30999;DHT22;20549;50.042;8.968;2023-08-12T03:57:59;22.50;92.30
30999;DHT22;20549;50.042;8.968;2023-08-12T04:00:25;22.50;92.70
30999;DHT22;20549;50.042;8.968;2023-08-12T04:02:52;22.50;92.90
30999;DHT22;20549;50.042;8.968;2023-08-12T04:05:19;22.40;93.70
30999;DHT22;20549;50.042;8.968;2023-08-12T04:07:45;22.40;93.60
30999;DHT22;20549;50.042;8.968;2023-08-12T04:10:12;22.40;94.00
30999;DHT22;20549;50.042;8.968;2023-08-12T04:12:39;22.40;94.10
30999;DHT22;20549;50.042;8.968;2023-08-12T04:15:05;22.30;94.10
30999;DHT22;20549;50.042;8.968;2023-08-12T04:17:32;22.40;94.50
30999;DHT22;20549;50.042;8.968;2023-08-12T04:19:58;22.30;94.80
30999;DHT22;20549;50.042;8.968;2023-08-12T04:22:25;22.30;95.10
30999;DHT22;20549;50.042;8.968;2023-08-12T04:24:51;22.30;95.30
30999;DHT22;20549;50.042;8.968;2023-08-12T04:27:18;22.30;95.60
30999;DHT22;20549;50.042;8.968;2023-08-12T04:29:45;22.20;95.80
30999;DHT22;20549;50.042;8.968;2023-08-12T04:32:11;22.20;96.10
30999;DHT22;20549;50.042;8.968;2023-08-12T04:34:38;22.20;96.30
30999;DHT22;20549;50.042;8.968;2023-08-12T04:37:04;22.20;96.50
30999;DHT22;20549;50.042;8.968;2023-08-12T04:39:31;22.20;97.10
30999;DHT22;20549;50.042;8.968;2023-08-12T04:41:57;22.20;97.40
30999;DHT22;20549;50.042;8.968;2023-08-12T04:44:24;22.20;97.60
30999;DHT22;20549;50.042;8.968;2023-08-12T04:46:51;22.20;97.70
30999;DHT22;20549;50.042;8.968;2023-08-12T04:49:17;22.10;98.00
30999;DHT22;20549;50.042;8.968;2023-08-12T04:51:44;22.10;98.00
30999;DHT22;20549;50.042;8.968;2023-08-12T04:54:10;22.20;98.10
30999;DHT22;20549;50.042;8.968;2023-08-12T04:56:37;22.10;98.20
30999;DHT22;20549;50.042;8.968;2023-08-12T04:59:04;22.10;98.40
30999;DHT22;20549;50.042;8.968;2023-08-12T05:01:30;22.10;98.60
30999;DHT22;20549;50.042;8.968;2023-08-12T05:03:57;22.10;98.70
30999;DHT22;20549;50.042;8.968;2023-08-12T05:06:23;22.10;98.80
30999;DHT22;20549;50.042;8.968;2023-08-12T05:08:50;22.10;99.00
30999;DHT22;20549;50.042;8.968;2023-08-12T05:11:17;22.20;99.10
30999;DHT22;20549;50.042;8.968;2023-08-12T05:13:43;22.10;99.00
30999;DHT22;20549;50.042;8.968;2023-08-12T05:16:10;22.10;99.00
30999;DHT22;20549;50.042;8.968;2023-08-12T05:18:36;22.10;99.10
30999;DHT22;20549;50.042;8.968;2023-08-12T05:21:03;22.10;99.20
30999;DHT22;20549;50.042;8.968;2023-08-12T05:23:30;22.10;99.20
30999;DHT22;20549;50.042;8.968;2023-08-12T05:25:56;22.10;99.40
30999;DHT22;20549;50.042;8.968;2023-08-12T05:28:23;22.10;99.40
30999;DHT22;20549;50.042;8.968;2023-08-12T05:30:49;22.10;99.60
30999;DHT22;20549;50.042;8.968;2023-08-12T05:33:16;22.10;99.80
30999;DHT22;20549;50.042;8.968;2023-08-12T05:35:42;22.20;99.90
30999;DHT22;20549;50.042;8.968;2023-08-12T05:38:09;22.20;99.90
30999;DHT22;20549;50.042;8.968;2023-08-12T05:40:36;22.20;99.90
30999;DHT22;20549;50.042;8.968;2023-08-12T05:43:02;22.30;99.90
30999;DHT22;20549;50.042;8.968;2023-08-12T05:45:29;22.40;99.90
30999;DHT22;20549;50.042;8.968;2023-08-12T05:47:55;22.50;99.90
30999;DHT22;20549;50.042;8.968;2023-08-12T05:50:22;22.60;99.90
30999;DHT22;20549;50.042;8.968;2023-08-12T05:52:49;22.70;99.90
30999;DHT22;20549;50.042;8.968;2023-08-12T05:55:15;22.80;99.90
30999;DHT22;20549;50.042;8.968;2023-08-12T05:57:42;23.00;99.90
30999;DHT22;20549;50.042;8.968;2023-08-12T06:00:08;23.10;99.90
30999;DHT22;20549;50.042;8.968;2023-08-12T06:02:35;23.20;99.90
30999;DHT22;20549;50.042;8.968;2023-08-12T06:05:02;23.30;99.90
30999;DHT22;20549;50.042;8.968;2023-08-12T06:07:28;23.40;99.90
30999;DHT22;20549;50.042;8.968;2023-08-12T06:09:55;23.50;99.90
30999;DHT22;20549;50.042;8.968;2023-08-12T06:12:21;23.70;99.90
30999;DHT22;20549;50.042;8.968;2023-08-12T06:14:48;23.90;99.90
30999;DHT22;20549;50.042;8.968;2023-08-12T06:17:14;24.10;99.90
30999;DHT22;20549;50.042;8.968;2023-08-12T06:19:41;24.40;99.90
30999;DHT22;20549;50.042;8.968;2023-08-12T06:22:08;24.80;99.90
30999;DHT22;20549;50.042;8.968;2023-08-12T06:24:34;25.20;99.90
30999;DHT22;20549;50.042;8.968;2023-08-12T06:27:01;25.90;99.90
30999;DHT22;20549;50.042;8.968;2023-08-12T06:29:27;26.60;99.90
30999;DHT22;20549;50.042;8.968;2023-08-12T06:31:54;27.40;99.90
30999;DHT22;20549;50.042;8.968;2023-08-12T06:34:21;28.00;96.10
30999;DHT22;20549;50.042;8.968;2023-08-12T06:36:47;28.60;92.80
30999;DHT22;20549;50.042;8.968;2023-08-12T06:39:14;28.90;90.40
30999;DHT22;20549;50.042;8.968;2023-08-12T06:41:40;29.20;88.10
30999;DHT22;20549;50.042;8.968;2023-08-12T06:44:07;29.60;88.30
30999;DHT22;20549;50.042;8.968;2023-08-12T06:46:34;30.00;88.50
30999;DHT22;20549;50.042;8.968;2023-08-12T06:49:00;30.50;87.90
30999;DHT22;20549;50.042;8.968;2023-08-12T06:51:27;31.10;84.20
30999;DHT22;20549;50.042;8.968;2023-08-12T06:53:53;31.60;79.70
30999;DHT22;20549;50.042;8.968;2023-08-12T06:56:20;32.10;75.40
30999;DHT22;20549;50.042;8.968;2023-08-12T06:58:47;32.40;71.80
30999;DHT22;20549;50.042;8.968;2023-08-12T07:01:13;32.50;69.20
30999;DHT22;20549;50.042;8.968;2023-08-12T07:03:40;32.50;67.80
30999;DHT22;20549;50.042;8.968;2023-08-12T07:06:06;32.40;66.80
30999;DHT22;20549;50.042;8.968;2023-08-12T07:08:33;32.30;66.40
30999;DHT22;20549;50.042;8.968;2023-08-12T07:10:59;32.20;66.40
30999;DHT22;20549;50.042;8.968;2023-08-12T07:13:26;32.10;66.00
30999;DHT22;20549;50.042;8.968;2023-08-12T07:15:53;32.00;65.80
30999;DHT22;20549;50.042;8.968;2023-08-12T07:18:19;31.80;65.60
30999;DHT22;20549;50.042;8.968;2023-08-12T07:20:46;31.80;65.40
30999;DHT22;20549;50.042;8.968;2023-08-12T07:23:13;31.60;65.70
30999;DHT22;20549;50.042;8.968;2023-08-12T07:25:39;31.60;66.00
30999;DHT22;20549;50.042;8.968;2023-08-12T07:28:06;31.70;67.20
30999;DHT22;20549;50.042;8.968;2023-08-12T07:30:34;31.90;68.50
30999;DHT22;20549;50.042;8.968;2023-08-12T07:32:59;32.20;68.40
30999;DHT22;20549;50.042;8.968;2023-08-12T07:35:25;32.60;67.60
30999;DHT22;20549;50.042;8.968;2023-08-12T07:37:52;33.00;66.50
30999;DHT22;20549;50.042;8.968;2023-08-12T07:40:19;33.40;66.20
30999;DHT22;20549;50.042;8.968;2023-08-12T07:42:45;33.90;65.90
30999;DHT22;20549;50.042;8.968;2023-08-12T07:45:12;34.30;64.40
30999;DHT22;20549;50.042;8.968;2023-08-12T07:47:38;34.60;62.50
30999;DHT22;20549;50.042;8.968;2023-08-12T07:50:05;34.90;61.10
30999;DHT22;20549;50.042;8.968;2023-08-12T07:52:32;35.10;60.60
30999;DHT22;20549;50.042;8.968;2023-08-12T07:54:58;35.20;60.00
30999;DHT22;20549;50.042;8.968;2023-08-12T07:57:25;35.40;59.80
30999;DHT22;20549;50.042;8.968;2023-08-12T07:59:52;35.50;59.00
30999;DHT22;20549;50.042;8.968;2023-08-12T08:02:18;35.60;58.60
30999;DHT22;20549;50.042;8.968;2023-08-12T08:04:45;35.70;58.70
30999;DHT22;20549;50.042;8.968;2023-08-12T08:07:11;36.00;58.70
30999;DHT22;20549;50.042;8.968;2023-08-12T08:09:38;36.30;58.80
30999;DHT22;20549;50.042;8.968;2023-08-12T08:12:05;36.60;58.70
30999;DHT22;20549;50.042;8.968;2023-08-12T08:14:31;37.10;58.00
30999;DHT22;20549;50.042;8.968;2023-08-12T08:16:58;37.50;57.20
30999;DHT22;20549;50.042;8.968;2023-08-12T08:19:24;37.80;55.90
30999;DHT22;20549;50.042;8.968;2023-08-12T08:21:51;37.90;54.70
30999;DHT22;20549;50.042;8.968;2023-08-12T08:24:17;38.00;54.00
30999;DHT22;20549;50.042;8.968;2023-08-12T08:26:44;38.10;54.10
30999;DHT22;20549;50.042;8.968;2023-08-12T08:29:11;38.10;54.00
30999;DHT22;20549;50.042;8.968;2023-08-12T08:31:37;38.10;54.60
30999;DHT22;20549;50.042;8.968;2023-08-12T08:34:04;38.00;53.90
30999;DHT22;20549;50.042;8.968;2023-08-12T08:36:30;37.80;53.70
30999;DHT22;20549;50.042;8.968;2023-08-12T08:38:57;37.50;53.30
30999;DHT22;20549;50.042;8.968;2023-08-12T08:41:24;37.20;53.00
30999;DHT22;20549;50.042;8.968;2023-08-12T08:43:50;36.90;52.90
30999;DHT22;20549;50.042;8.968;2023-08-12T08:46:17;36.60;52.80
30999;DHT22;20549;50.042;8.968;2023-08-12T08:48:43;36.30;52.70
30999;DHT22;20549;50.042;8.968;2023-08-12T08:51:10;36.10;53.20
30999;DHT22;20549;50.042;8.968;2023-08-12T08:53:40;35.90;53.60
30999;DHT22;20549;50.042;8.968;2023-08-12T08:56:07;35.80;53.70
30999;DHT22;20549;50.042;8.968;2023-08-12T08:58:32;35.80;53.70
30999;DHT22;20549;50.042;8.968;2023-08-12T09:00:59;35.70;53.60
30999;DHT22;20549;50.042;8.968;2023-08-12T09:03:26;35.70;53.70
30999;DHT22;20549;50.042;8.968;2023-08-12T09:05:52;35.70;53.90
30999;DHT22;20549;50.042;8.968;2023-08-12T09:08:19;35.80;54.40
30999;DHT22;20549;50.042;8.968;2023-08-12T09:10:45;36.00;54.90
30999;DHT22;20549;50.042;8.968;2023-08-12T09:13:12;36.30;54.90
30999;DHT22;20549;50.042;8.968;2023-08-12T09:15:39;36.60;54.70
30999;DHT22;20549;50.042;8.968;2023-08-12T09:18:05;37.00;54.50
30999;DHT22;20549;50.042;8.968;2023-08-12T09:20:34;37.60;54.60
30999;DHT22;20549;50.042;8.968;2023-08-12T09:23:01;38.20;54.40
30999;DHT22;20549;50.042;8.968;2023-08-12T09:25:28;38.80;53.80
30999;DHT22;20549;50.042;8.968;2023-08-12T09:27:58;39.50;52.60
30999;DHT22;20549;50.042;8.968;2023-08-12T09:30:21;40.10;51.40
30999;DHT22;20549;50.042;8.968;2023-08-12T09:33:02;40.50;50.60
30999;DHT22;20549;50.042;8.968;2023-08-12T09:35:30;41.00;50.30
30999;DHT22;20549;50.042;8.968;2023-08-12T09:37:52;41.60;49.90
30999;DHT22;20549;50.042;8.968;2023-08-12T09:40:19;41.90;49.00
30999;DHT22;20549;50.042;8.968;2023-08-12T09:42:45;42.20;47.70
30999;DHT22;20549;50.042;8.968;2023-08-12T09:45:12;42.30;46.50
30999;DHT22;20549;50.042;8.968;2023-08-12T09:47:38;42.10;45.70
30999;DHT22;20549;50.042;8.968;2023-08-12T09:50:05;41.80;45.40
30999;DHT22;20549;50.042;8.968;2023-08-12T09:52:32;41.40;45.40
30999;DHT22;20549;50.042;8.968;2023-08-12T09:54:58;40.90;45.60
30999;DHT22;20549;50.042;8.968;2023-08-12T09:57:25;40.60;46.10
30999;DHT22;20549;50.042;8.968;2023-08-12T09:59:51;40.30;46.70
30999;DHT22;20549;50.042;8.968;2023-08-12T10:02:18;40.20;47.50
30999;DHT22;20549;50.042;8.968;2023-08-12T10:04:45;40.20;47.60
30999;DHT22;20549;50.042;8.968;2023-08-12T10:07:11;40.10;47.10
30999;DHT22;20549;50.042;8.968;2023-08-12T10:09:41;40.00;46.60
30999;DHT22;20549;50.042;8.968;2023-08-12T10:12:07;39.90;46.50
30999;DHT22;20549;50.042;8.968;2023-08-12T10:14:34;39.80;46.70
30999;DHT22;20549;50.042;8.968;2023-08-12T10:17:00;39.60;46.60
30999;DHT22;20549;50.042;8.968;2023-08-12T10:19:27;39.40;46.90
30999;DHT22;20549;50.042;8.968;2023-08-12T10:21:55;39.30;47.00
30999;DHT22;20549;50.042;8.968;2023-08-12T10:24:20;39.20;47.10
30999;DHT22;20549;50.042;8.968;2023-08-12T10:26:47;39.10;47.00
30999;DHT22;20549;50.042;8.968;2023-08-12T10:29:13;38.90;46.90
30999;DHT22;20549;50.042;8.968;2023-08-12T10:31:40;38.80;47.00
30999;DHT22;20549;50.042;8.968;2023-08-12T10:34:06;38.60;47.10
30999;DHT22;20549;50.042;8.968;2023-08-12T10:36:33;38.40;47.40
30999;DHT22;20549;50.042;8.968;2023-08-12T10:39:02;38.10;47.10
30999;DHT22;20549;50.042;8.968;2023-08-12T10:41:29;37.80;47.30
30999;DHT22;20549;50.042;8.968;2023-08-12T10:43:57;37.40;47.60
30999;DHT22;20549;50.042;8.968;2023-08-12T10:46:29;37.10;47.40
30999;DHT22;20549;50.042;8.968;2023-08-12T10:48:58;36.60;47.90
30999;DHT22;20549;50.042;8.968;2023-08-12T10:51:40;36.20;48.10
30999;DHT22;20549;50.042;8.968;2023-08-12T10:54:20;35.70;49.30
30999;DHT22;20549;50.042;8.968;2023-08-12T11:02:18;33.60;51.10
30999;DHT22;20549;50.042;8.968;2023-08-12T11:04:44;32.70;52.00
30999;DHT22;20549;50.042;8.968;2023-08-12T11:07:32;32.00;53.00
30999;DHT22;20549;50.042;8.968;2023-08-12T11:10:11;31.30;54.10
30999;DHT22;20549;50.042;8.968;2023-08-12T11:12:37;30.60;54.80
30999;DHT22;20549;50.042;8.968;2023-08-12T11:15:03;30.00;55.70
30999;DHT22;20549;50.042;8.968;2023-08-12T11:17:42;29.60;56.90
30999;DHT22;20549;50.042;8.968;2023-08-12T11:20:09;29.20;57.90
30999;DHT22;20549;50.042;8.968;2023-08-12T11:22:35;28.80;58.70
30999;DHT22;20549;50.042;8.968;2023-08-12T11:25:02;28.60;59.60
30999;DHT22;20549;50.042;8.968;2023-08-12T11:27:28;28.40;60.30
30999;DHT22;20549;50.042;8.968;2023-08-12T11:29:54;28.20;61.00
30999;DHT22;20549;50.042;8.968;2023-08-12T11:32:21;28.00;61.80
30999;DHT22;20549;50.042;8.968;2023-08-12T11:34:48;27.90;62.20
30999;DHT22;20549;50.042;8.968;2023-08-12T11:37:14;27.70;62.80
30999;DHT22;20549;50.042;8.968;2023-08-12T11:39:41;27.60;63.40
30999;DHT22;20549;50.042;8.968;2023-08-12T11:42:07;27.40;63.80
30999;DHT22;20549;50.042;8.968;2023-08-12T11:44:34;27.30;64.30
30999;DHT22;20549;50.042;8.968;2023-08-12T11:47:01;27.20;64.70
30999;DHT22;20549;50.042;8.968;2023-08-12T11:49:27;27.00;65.10
30999;DHT22;20549;50.042;8.968;2023-08-12T11:51:54;26.90;65.40
30999;DHT22;20549;50.042;8.968;2023-08-12T11:54:20;26.80;65.70
30999;DHT22;20549;50.042;8.968;2023-08-12T11:56:47;26.60;66.20
30999;DHT22;20549;50.042;8.968;2023-08-12T11:59:14;26.50;66.80
30999;DHT22;20549;50.042;8.968;2023-08-12T12:01:40;26.30;67.20
30999;DHT22;20549;50.042;8.968;2023-08-12T12:04:07;26.20;67.80
30999;DHT22;20549;50.042;8.968;2023-08-12T12:06:36;26.10;68.10
30999;DHT22;20549;50.042;8.968;2023-08-12T12:09:00;26.00;68.40
30999;DHT22;20549;50.042;8.968;2023-08-12T12:11:26;25.90;68.80
30999;DHT22;20549;50.042;8.968;2023-08-12T12:13:53;25.70;69.30
30999;DHT22;20549;50.042;8.968;2023-08-12T12:16:20;25.60;69.80
30999;DHT22;20549;50.042;8.968;2023-08-12T12:18:46;25.60;70.10
30999;DHT22;20549;50.042;8.968;2023-08-12T12:21:19;25.50;70.50
30999;DHT22;20549;50.042;8.968;2023-08-12T12:23:39;25.40;70.80
30999;DHT22;20549;50.042;8.968;2023-08-12T12:26:06;25.30;71.20
30999;DHT22;20549;50.042;8.968;2023-08-12T12:28:33;25.20;71.50
30999;DHT22;20549;50.042;8.968;2023-08-12T12:30:59;25.10;72.00
30999;DHT22;20549;50.042;8.968;2023-08-12T12:33:26;25.00;72.40
30999;DHT22;20549;50.042;8.968;2023-08-12T12:35:52;24.90;72.90
30999;DHT22;20549;50.042;8.968;2023-08-12T12:38:19;24.80;73.20
30999;DHT22;20549;50.042;8.968;2023-08-12T12:40:46;24.80;73.70
30999;DHT22;20549;50.042;8.968;2023-08-12T12:43:12;24.70;74.30
30999;DHT22;20549;50.042;8.968;2023-08-12T12:45:39;24.70;75.00
30999;DHT22;20549;50.042;8.968;2023-08-12T12:48:05;24.60;75.60
30999;DHT22;20549;50.042;8.968;2023-08-12T12:50:32;24.60;76.30
30999;DHT22;20549;50.042;8.968;2023-08-12T12:52:58;24.50;76.90
30999;DHT22;20549;50.042;8.968;2023-08-12T12:55:25;24.50;77.60
30999;DHT22;20549;50.042;8.968;2023-08-12T12:57:52;24.50;78.20
30999;DHT22;20549;50.042;8.968;2023-08-12T13:00:18;24.50;78.90
30999;DHT22;20549;50.042;8.968;2023-08-12T13:02:45;24.50;80.00
30999;DHT22;20549;50.042;8.968;2023-08-12T13:05:11;24.50;81.00
30999;DHT22;20549;50.042;8.968;2023-08-12T13:07:38;24.50;82.70
30999;DHT22;20549;50.042;8.968;2023-08-12T13:10:05;24.50;84.60
30999;DHT22;20549;50.042;8.968;2023-08-12T13:12:31;24.60;86.50
30999;DHT22;20549;50.042;8.968;2023-08-12T13:14:58;24.70;88.10
30999;DHT22;20549;50.042;8.968;2023-08-12T13:17:24;24.90;90.20
30999;DHT22;20549;50.042;8.968;2023-08-12T13:19:51;25.10;90.90
30999;DHT22;20549;50.042;8.968;2023-08-12T13:22:18;25.30;91.80
30999;DHT22;20549;50.042;8.968;2023-08-12T13:24:44;25.60;92.50
30999;DHT22;20549;50.042;8.968;2023-08-12T13:27:11;25.80;92.80
30999;DHT22;20549;50.042;8.968;2023-08-12T13:29:37;26.10;92.80
30999;DHT22;20549;50.042;8.968;2023-08-12T13:32:04;26.40;92.80
30999;DHT22;20549;50.042;8.968;2023-08-12T13:34:31;26.70;92.20
30999;DHT22;20549;50.042;8.968;2023-08-12T13:36:57;27.00;91.60
30999;DHT22;20549;50.042;8.968;2023-08-12T13:39:24;27.20;90.90
30999;DHT22;20549;50.042;8.968;2023-08-12T13:41:50;27.30;89.70
30999;DHT22;20549;50.042;8.968;2023-08-12T13:44:17;27.40;89.00
30999;DHT22;20549;50.042;8.968;2023-08-12T13:46:43;27.50;88.30
30999;DHT22;20549;50.042;8.968;2023-08-12T13:49:10;27.60;87.70
30999;DHT22;20549;50.042;8.968;2023-08-12T13:51:37;27.60;87.10
30999;DHT22;20549;50.042;8.968;2023-08-12T13:54:03;27.70;87.80
30999;DHT22;20549;50.042;8.968;2023-08-12T13:56:30;27.70;87.90
30999;DHT22;20549;50.042;8.968;2023-08-12T13:58:56;27.80;86.50
30999;DHT22;20549;50.042;8.968;2023-08-12T14:01:23;27.90;86.60
30999;DHT22;20549;50.042;8.968;2023-08-12T14:03:50;27.90;87.70
30999;DHT22;20549;50.042;8.968;2023-08-12T14:06:16;27.90;87.10
30999;DHT22;20549;50.042;8.968;2023-08-12T14:08:43;28.00;86.30
30999;DHT22;20549;50.042;8.968;2023-08-12T14:11:09;28.00;85.60
30999;DHT22;20549;50.042;8.968;2023-08-12T14:13:36;28.00;84.60
30999;DHT22;20549;50.042;8.968;2023-08-12T14:16:03;28.00;83.40
30999;DHT22;20549;50.042;8.968;2023-08-12T14:18:29;28.00;83.70
30999;DHT22;20549;50.042;8.968;2023-08-12T14:20:56;28.00;83.90
30999;DHT22;20549;50.042;8.968;2023-08-12T14:23:22;28.00;84.40
30999;DHT22;20549;50.042;8.968;2023-08-12T14:25:49;28.00;84.80
30999;DHT22;20549;50.042;8.968;2023-08-12T14:28:15;28.10;85.20
30999;DHT22;20549;50.042;8.968;2023-08-12T14:30:42;28.10;85.90
30999;DHT22;20549;50.042;8.968;2023-08-12T14:33:09;28.10;85.60
30999;DHT22;20549;50.042;8.968;2023-08-12T14:35:35;28.20;85.30
30999;DHT22;20549;50.042;8.968;2023-08-12T14:38:02;28.20;86.30
30999;DHT22;20549;50.042;8.968;2023-08-12T14:40:28;28.30;86.00
30999;DHT22;20549;50.042;8.968;2023-08-12T14:42:55;28.30;86.60
30999;DHT22;20549;50.042;8.968;2023-08-12T14:45:22;28.40;85.40
30999;DHT22;20549;50.042;8.968;2023-08-12T14:47:48;28.50;85.00
30999;DHT22;20549;50.042;8.968;2023-08-12T14:50:15;28.50;84.40
30999;DHT22;20549;50.042;8.968;2023-08-12T14:52:41;28.50;83.30
30999;DHT22;20549;50.042;8.968;2023-08-12T14:55:08;28.60;83.10
30999;DHT22;20549;50.042;8.968;2023-08-12T14:57:35;28.60;82.10
30999;DHT22;20549;50.042;8.968;2023-08-12T15:00:01;28.60;82.50
30999;DHT22;20549;50.042;8.968;2023-08-12T15:02:28;28.70;83.20
30999;DHT22;20549;50.042;8.968;2023-08-12T15:04:54;28.70;82.80
30999;DHT22;20549;50.042;8.968;2023-08-12T15:07:21;28.80;82.10
30999;DHT22;20549;50.042;8.968;2023-08-12T15:09:48;28.80;82.10
30999;DHT22;20549;50.042;8.968;2023-08-12T15:12:14;28.90;82.50
30999;DHT22;20549;50.042;8.968;2023-08-12T15:14:41;29.00;81.30
30999;DHT22;20549;50.042;8.968;2023-08-12T15:17:07;29.00;79.90
30999;DHT22;20549;50.042;8.968;2023-08-12T15:19:34;29.10;79.10
30999;DHT22;20549;50.042;8.968;2023-08-12T15:22:00;29.10;78.70
30999;DHT22;20549;50.042;8.968;2023-08-12T15:24:27;29.00;78.90
30999;DHT22;20549;50.042;8.968;2023-08-12T15:26:54;29.00;78.50
30999;DHT22;20549;50.042;8.968;2023-08-12T15:29:20;29.00;78.60
30999;DHT22;20549;50.042;8.968;2023-08-12T15:31:47;29.00;79.00